Time;durP1;ratioP1;P1;durP2;ratioP2;P2;SDS_P1;SDS_P2;PMS_P1;PMS_P2;Temp;Humidity;BMP_temperature;BMP_pressure;BME280_temperature;BME280_humidity;BME280_pressure;Samples;Min_cycle;Max_cycle;Signal;HPM_P1;HPM_P2
2022/03/08 00:02:12;;;;;;;56.42;31.08;;;;;;;1.18;63.61;100668.00;5022079;28;20444;-81
2022/03/08 00:04:39;;;;;;;71.40;33.72;;;;;;;1.16;63.45;100669.78;5018219;28;20170;-81
2022/03/08 00:07:08;;;;;;;63.10;29.63;;;;;;;1.14;63.40;100676.78;5001457;28;20144;-81
2022/03/08 00:09:37;;;;;;;49.55;28.10;;;;;;;1.14;63.23;100674.19;5021022;28;20065;-82
2022/03/08 00:12:07;;;;;;;72.85;36.88;;;;;;;1.07;63.38;100664.84;4992047;28;20053;-80
2022/03/08 00:14:35;;;;;;;62.65;32.38;;;;;;;1.13;63.41;100675.06;5021017;28;20046;-83
2022/03/08 00:17:03;;;;;;;71.07;40.08;;;;;;;1.10;63.55;100672.56;5016249;28;20074;-82
2022/03/08 00:19:32;;;;;;;50.55;25.52;;;;;;;1.09;63.77;100679.50;5016720;28;20216;-82
2022/03/08 00:21:59;;;;;;;52.13;28.88;;;;;;;1.12;64.15;100689.84;5014636;28;20258;-82
2022/03/08 00:24:27;;;;;;;52.15;27.95;;;;;;;1.23;63.83;100694.75;5014630;28;20153;-82
2022/03/08 00:26:56;;;;;;;40.92;21.08;;;;;;;1.29;63.68;100694.56;5016806;28;20105;-81
2022/03/08 00:29:23;;;;;;;39.78;22.20;;;;;;;1.19;63.83;100692.25;5026218;28;20061;-81
2022/03/08 00:31:51;;;;;;;41.33;24.02;;;;;;;1.13;64.07;100693.28;5058450;28;20085;-82
2022/03/08 00:34:19;;;;;;;41.45;24.13;;;;;;;1.11;64.02;100700.28;5058844;28;20134;-80
2022/03/08 00:36:46;;;;;;;38.20;22.63;;;;;;;1.13;64.17;100694.16;5024676;28;20149;-81
2022/03/08 00:39:13;;;;;;;52.35;22.08;;;;;;;1.10;64.25;100696.84;5025380;28;20109;-80
2022/03/08 00:41:52;;;;;;;;;;;;;;;;;;;;;
2022/03/08 00:44:22;;;;;;;58.60;25.38;;;;;;;1.09;63.83;100689.91;5021782;28;20153;-83
2022/03/08 00:46:49;;;;;;;48.03;23.02;;;;;;;1.09;63.99;100686.47;5021240;28;20057;-81
2022/03/08 00:49:16;;;;;;;49.22;28.02;;;;;;;1.01;63.80;100671.06;5021472;28;20054;-81
2022/03/08 00:51:43;;;;;;;54.47;27.75;;;;;;;1.01;64.04;100672.78;5018974;28;20581;-81
2022/03/08 00:54:11;;;;;;;55.97;27.27;;;;;;;0.99;63.96;100677.19;5029456;28;20150;-80
2022/03/08 00:56:38;;;;;;;58.80;27.80;;;;;;;0.94;63.79;100669.53;5024673;28;20069;-80
2022/03/08 00:59:07;;;;;;;52.03;27.55;;;;;;;0.94;64.17;100666.91;5021427;28;20176;-82
2022/03/08 01:01:37;;;;;;;59.92;32.00;;;;;;;0.90;64.05;100671.34;5022467;28;20046;-83
2022/03/08 01:04:05;;;;;;;60.55;30.40;;;;;;;0.86;64.03;100667.09;5018062;28;20107;-82
2022/03/08 01:06:32;;;;;;;58.35;33.72;;;;;;;0.86;64.00;100674.06;5016362;28;20144;-82
2022/03/08 01:09:01;;;;;;;45.45;25.13;;;;;;;0.82;64.10;100681.06;5017207;28;20072;-81
2022/03/08 01:11:29;;;;;;;44.80;26.30;;;;;;;0.82;64.28;100683.69;5016490;28;20057;-82
2022/03/08 01:13:57;;;;;;;45.25;23.40;;;;;;;0.82;64.24;100672.44;5014627;28;20137;-83
2022/03/08 01:16:24;;;;;;;47.15;24.00;;;;;;;0.83;64.37;100693.19;5014209;28;20077;-82
2022/03/08 01:18:54;;;;;;;55.38;26.95;;;;;;;0.78;64.44;100689.84;5029761;28;20092;-80
2022/03/08 01:21:21;;;;;;;45.53;25.05;;;;;;;0.81;64.31;100691.50;5013260;28;20498;-81
2022/03/08 01:23:49;;;;;;;42.08;23.73;;;;;;;0.72;64.45;100683.06;5018454;28;20506;-82
2022/03/08 01:26:18;;;;;;;38.05;19.70;;;;;;;0.71;64.66;100686.53;5020357;28;20081;-82
2022/03/08 01:28:47;;;;;;;40.80;22.17;;;;;;;0.70;64.38;100683.97;5015867;28;20046;-82
2022/03/08 01:31:15;;;;;;;39.75;22.30;;;;;;;0.69;64.15;100687.47;5046303;28;20133;-80
2022/03/08 01:33:45;;;;;;;39.65;23.15;;;;;;;0.65;64.68;100691.03;5045176;28;20129;-82
2022/03/08 01:36:16;;;;;;;38.75;22.20;;;;;;;0.63;64.67;100685.03;5022374;28;20045;-81
2022/03/08 01:38:44;;;;;;;30.70;19.10;;;;;;;0.60;64.54;100682.53;5021557;28;20046;-81
2022/03/08 01:41:12;;;;;;;34.65;21.50;;;;;;;0.60;64.55;100685.13;5014609;28;20141;-82
2022/03/08 01:43:40;;;;;;;31.88;18.45;;;;;;;0.53;64.71;100677.44;5046284;28;20118;-82
2022/03/08 01:46:08;;;;;;;20.70;14.55;;;;;;;0.55;64.57;100675.66;5012673;28;20113;-80
2022/03/08 01:48:36;;;;;;;33.03;15.75;;;;;;;0.51;64.78;100674.03;5012381;28;20076;-82
2022/03/08 01:51:04;;;;;;;25.00;15.32;;;;;;;0.53;64.54;100672.25;5019062;28;20060;-80
2022/03/08 01:53:34;;;;;;;22.40;13.15;;;;;;;0.49;64.50;100665.44;5023204;28;20050;-81
2022/03/08 01:56:02;;;;;;;28.13;16.60;;;;;;;0.46;64.52;100660.28;5013483;28;20425;-82
2022/03/08 01:58:29;;;;;;;34.92;16.38;;;;;;;0.45;64.51;100662.94;5012982;28;20058;-82
2022/03/08 02:00:56;;;;;;;26.85;14.70;;;;;;;0.44;64.60;100658.63;5013664;28;20100;-82
2022/03/08 02:03:24;;;;;;;25.70;15.27;;;;;;;0.40;64.95;100655.25;5012931;28;20137;-82
2022/03/08 02:05:51;;;;;;;28.85;16.23;;;;;;;0.39;64.67;100656.13;5011407;28;20108;-81
2022/03/08 02:08:21;;;;;;;29.15;17.13;;;;;;;0.36;64.74;100674.38;5011210;28;20129;-82
2022/03/08 02:10:53;;;;;;;30.50;16.92;;;;;;;0.34;65.17;100668.38;5012357;28;20081;-83
2022/03/08 02:13:21;;;;;;;33.47;17.45;;;;;;;0.32;64.97;100664.97;5045458;28;20092;-84
2022/03/08 02:15:52;;;;;;;29.50;15.98;;;;;;;0.29;64.84;100665.03;5011674;28;20136;-80
2022/03/08 02:18:20;;;;;;;29.40;17.58;;;;;;;0.27;64.96;100669.41;5013868;28;20054;-81
2022/03/08 02:20:50;;;;;;;36.67;18.35;;;;;;;0.25;65.38;100681.59;5017495;28;20050;-83
2022/03/08 02:23:21;;;;;;;30.90;18.15;;;;;;;0.24;64.90;100687.69;5014803;28;20053;-80
2022/03/08 02:25:48;;;;;;;25.90;17.80;;;;;;;0.22;65.38;100684.25;5010361;28;20088;-79
2022/03/08 02:28:16;;;;;;;22.50;16.25;;;;;;;0.21;65.26;100695.53;5013140;28;20060;-81
2022/03/08 02:30:43;;;;;;;29.67;15.93;;;;;;;0.22;65.07;100698.13;5017852;28;20084;-81
2022/03/08 02:33:10;;;;;;;26.25;15.00;;;;;;;0.22;65.29;100692.03;5024522;28;20118;-82
2022/03/08 02:35:38;;;;;;;20.35;14.95;;;;;;;0.20;65.37;100686.91;5027495;28;20145;-80
2022/03/08 02:38:07;;;;;;;30.05;17.25;;;;;;;0.23;64.98;100684.22;5013074;28;20395;-79
2022/03/08 02:40:39;;;;;;;28.48;19.98;;;;;;;0.21;65.34;100686.00;5011760;28;20076;-81
2022/03/08 02:43:11;;;;;;;35.65;19.60;;;;;;;0.25;65.27;100697.19;5013681;28;20093;-83
2022/03/08 02:45:39;;;;;;;35.80;19.83;;;;;;;0.30;65.29;100695.34;5024069;28;20069;-82
2022/03/08 02:48:07;;;;;;;36.50;20.90;;;;;;;0.26;65.22;100691.94;5023163;28;20109;-81
2022/03/08 02:50:35;;;;;;;28.88;19.50;;;;;;;0.30;65.03;100693.56;5018931;28;20494;-81
2022/03/08 02:53:03;;;;;;;33.05;16.88;;;;;;;0.31;64.89;100702.25;5012495;28;20165;-81
2022/03/08 02:55:37;;;;;;;22.95;13.90;;;;;;;0.32;64.81;100699.59;5043888;28;20081;-82
2022/03/08 02:58:06;;;;;;;21.55;14.13;;;;;;;0.33;64.96;100703.91;5012440;28;20509;-81
2022/03/08 03:00:36;;;;;;;24.95;14.82;;;;;;;0.30;65.30;100708.31;5013374;28;20169;-81
2022/03/08 03:03:05;;;;;;;22.45;13.30;;;;;;;0.28;65.00;100702.31;5024637;28;20082;-81
2022/03/08 03:05:35;;;;;;;28.90;13.70;;;;;;;0.30;64.73;100703.13;5034478;28;20053;-80
2022/03/08 03:08:03;;;;;;;27.48;14.82;;;;;;;0.28;65.02;100700.56;5029217;28;20042;-80
2022/03/08 03:10:31;;;;;;;26.35;16.20;;;;;;;0.27;64.91;100698.00;5015565;28;20080;-82
2022/03/08 03:13:00;;;;;;;26.42;17.95;;;;;;;0.25;64.95;100711.00;5015774;28;20046;-80
2022/03/08 03:15:29;;;;;;;27.67;15.35;;;;;;;0.22;64.68;100711.09;5013243;28;20673;-81
2022/03/08 03:17:56;;;;;;;28.25;16.52;;;;;;;0.22;64.65;100718.00;5014674;28;20490;-81
2022/03/08 03:20:26;;;;;;;29.10;16.17;;;;;;;0.22;64.82;100718.00;5012173;28;20148;-81
2022/03/08 03:22:53;;;;;;;27.17;15.57;;;;;;;0.17;64.93;100711.19;5013932;28;20054;-81
2022/03/08 03:25:21;;;;;;;24.85;16.25;;;;;;;0.12;65.00;100715.63;5014952;28;20144;-80
2022/03/08 03:27:48;;;;;;;27.95;16.95;;;;;;;0.13;65.05;100714.75;5046195;28;20104;-81
2022/03/08 03:30:18;;;;;;;26.63;17.80;;;;;;;0.14;65.33;100718.19;5012588;28;20447;-81
2022/03/08 03:32:46;;;;;;;23.17;13.95;;;;;;;0.16;65.44;100712.09;5014993;28;20058;-81
2022/03/08 03:35:14;;;;;;;23.42;14.45;;;;;;;0.12;65.08;100723.41;5014686;28;20085;-82
2022/03/08 03:37:42;;;;;;;26.65;16.25;;;;;;;0.14;64.82;100724.25;5013810;28;20127;-83
2022/03/08 03:40:11;;;;;;;30.23;14.85;;;;;;;0.11;64.88;100726.94;5015250;28;20149;-82
2022/03/08 03:42:39;;;;;;;22.25;13.30;;;;;;;0.11;64.75;100724.31;5015729;28;20050;-83
2022/03/08 03:45:09;;;;;;;25.27;13.70;;;;;;;0.10;64.85;100727.78;5013799;28;20069;-82
2022/03/08 03:47:39;;;;;;;21.65;13.70;;;;;;;0.06;64.81;100722.72;5013989;28;20133;-83
2022/03/08 03:50:08;;;;;;;21.83;12.70;;;;;;;0.05;64.71;100724.44;5012274;28;20049;-80
2022/03/08 03:52:36;;;;;;;24.20;11.80;;;;;;;0.03;64.67;100728.81;5012899;28;20081;-82
2022/03/08 03:55:06;;;;;;;18.20;11.75;;;;;;;0.01;64.66;100730.59;5014214;28;20137;-83
2022/03/08 03:57:34;;;;;;;15.98;11.23;;;;;;;-0.01;64.61;100743.59;5012896;28;20053;-79
2022/03/08 04:00:02;;;;;;;20.00;12.75;;;;;;;0.00;64.82;100744.50;5013626;28;20089;-82
2022/03/08 04:02:29;;;;;;;22.58;14.05;;;;;;;-0.07;64.77;100741.16;5012838;28;20129;-81
2022/03/08 04:04:59;;;;;;;17.05;10.98;;;;;;;-0.04;64.93;100748.00;5012426;28;20640;-82
2022/03/08 04:07:26;;;;;;;19.80;12.38;;;;;;;-0.05;64.92;100741.13;5000338;28;20100;-82
2022/03/08 04:09:54;;;;;;;18.00;12.02;;;;;;;-0.07;64.89;100742.91;5024004;28;20045;-80
2022/03/08 04:12:22;;;;;;;27.45;15.23;;;;;;;-0.09;64.74;100742.06;5045651;28;20054;-81
2022/03/08 04:14:49;;;;;;;17.83;9.80;;;;;;;-0.09;64.81;100744.66;5049889;28;20105;-80
2022/03/08 04:17:17;;;;;;;20.35;10.82;;;;;;;-0.09;64.86;100745.53;5012821;28;20049;-79
2022/03/08 04:19:44;;;;;;;24.60;10.63;;;;;;;-0.10;64.99;100742.97;5011989;28;20081;-81
2022/03/08 04:22:14;;;;;;;17.17;9.63;;;;;;;-0.10;64.66;100740.38;5010458;28;20050;-80
2022/03/08 04:24:42;;;;;;;22.38;10.23;;;;;;;-0.12;64.61;100739.53;5012895;28;20085;-81
2022/03/08 04:27:10;;;;;;;22.48;9.27;;;;;;;-0.11;64.55;100746.44;5016040;28;20049;-81
2022/03/08 04:29:37;;;;;;;18.75;10.30;;;;;;;-0.13;64.63;100743.00;5013499;28;20399;-80
2022/03/08 04:32:05;;;;;;;19.33;12.93;;;;;;;-0.14;64.69;100747.34;5023356;28;20077;-79
2022/03/08 04:34:33;;;;;;;46.67;28.02;;;;;;;-0.16;64.43;100753.44;5031513;28;20057;-79
2022/03/08 04:37:00;;;;;;;30.75;16.15;;;;;;;-0.16;64.51;100751.72;5036878;28;20092;-81
2022/03/08 04:39:29;;;;;;;36.15;19.98;;;;;;;-0.23;64.70;100756.19;5042094;28;20128;-79
2022/03/08 04:41:56;;;;;;;27.23;16.98;;;;;;;-0.23;64.82;100761.38;5037221;28;20521;-80
2022/03/08 04:44:23;;;;;;;38.03;21.98;;;;;;;-0.25;64.86;100765.75;5044617;28;20384;-80
2022/03/08 04:46:50;;;;;;;40.55;22.95;;;;;;;-0.26;64.68;100757.97;5042746;28;20045;-81
2022/03/08 04:49:17;;;;;;;40.80;20.08;;;;;;;-0.27;64.71;100761.44;5040272;28;20060;-79
2022/03/08 04:51:45;;;;;;;30.70;17.23;;;;;;;-0.29;64.71;100756.31;5038158;28;20145;-81
2022/03/08 04:54:12;;;;;;;27.13;13.48;;;;;;;-0.28;64.85;100759.75;5031176;28;20255;-81
2022/03/08 04:56:40;;;;;;;34.45;17.60;;;;;;;-0.30;64.63;100754.59;5031413;28;20085;-79
2022/03/08 04:59:07;;;;;;;33.15;18.92;;;;;;;-0.33;64.60;100757.25;5031279;28;20168;-79
2022/03/08 05:01:35;;;;;;;78.65;37.03;;;;;;;-0.32;64.70;100752.94;5031223;28;20061;-78
2022/03/08 05:04:02;;;;;;;76.28;36.90;;;;;;;-0.33;64.88;100759.84;5030800;28;20159;-80
2022/03/08 05:06:30;;;;;;;59.78;29.10;;;;;;;-0.37;64.73;100750.41;5031485;28;20132;-80
2022/03/08 05:08:58;;;;;;;70.85;31.90;;;;;;;-0.38;64.60;100748.69;5031481;28;20049;-81
2022/03/08 05:11:25;;;;;;;76.70;33.22;;;;;;;-0.35;64.65;100750.38;5030085;28;20132;-80
2022/03/08 05:13:54;;;;;;;98.72;40.95;;;;;;;-0.40;64.40;100747.88;5030170;28;20049;-80
2022/03/08 05:16:21;;;;;;;70.07;34.65;;;;;;;-0.36;64.74;100759.03;5031178;28;20077;-80
2022/03/08 05:18:48;;;;;;;70.35;36.53;;;;;;;-0.38;64.76;100759.06;5030888;28;20107;-77
2022/03/08 05:21:15;;;;;;;94.25;44.50;;;;;;;-0.35;64.73;100760.75;5028017;28;20140;-77
2022/03/08 05:23:42;;;;;;;78.78;36.55;;;;;;;-0.36;64.80;100753.84;5030053;28;20113;-78
2022/03/08 05:26:10;;;;;;;103.93;43.25;;;;;;;-0.34;64.94;100755.53;5028935;28;20049;-76
2022/03/08 05:28:37;;;;;;;100.88;43.08;;;;;;;-0.31;64.96;100762.41;5029306;28;20053;-81
2022/03/08 05:31:06;;;;;;;74.38;38.22;;;;;;;-0.30;64.93;100766.72;5029559;28;20128;-80
2022/03/08 05:33:33;;;;;;;72.15;37.53;;;;;;;-0.27;65.06;100767.53;5029504;28;20451;-79
2022/03/08 05:36:00;;;;;;;81.25;46.13;;;;;;;-0.23;64.73;100778.69;5028455;28;20126;-78
2022/03/08 05:38:28;;;;;;;72.28;41.05;;;;;;;-0.24;64.76;100785.59;5028894;28;20041;-81
2022/03/08 05:40:55;;;;;;;60.17;32.95;;;;;;;-0.20;64.92;100796.78;5028269;28;20136;-79
2022/03/08 05:43:23;;;;;;;60.13;33.83;;;;;;;-0.16;65.33;100803.66;5028794;28;20136;-77
2022/03/08 05:45:50;;;;;;;84.63;50.55;;;;;;;-0.15;65.37;100787.19;5027387;28;20124;-77
2022/03/08 05:48:20;;;;;;;61.53;33.30;;;;;;;-0.10;65.23;100789.69;5027838;28;20046;-81
2022/03/08 05:50:48;;;;;;;79.43;47.05;;;;;;;-0.13;65.21;100784.56;5025728;28;20123;-75
2022/03/08 05:53:18;;;;;;;67.95;41.90;;;;;;;-0.09;65.19;100797.47;5028550;28;20191;-79
2022/03/08 05:55:46;;;;;;;52.33;33.78;;;;;;;-0.05;65.21;100796.50;5029206;28;20563;-79
2022/03/08 05:58:13;;;;;;;68.45;40.90;;;;;;;-0.01;65.43;100790.34;5030446;28;20089;-79
2022/03/08 06:00:40;;;;;;;62.53;37.85;;;;;;;0.05;65.40;100780.72;5024323;28;20482;-69
2022/03/08 06:03:07;;;;;;;62.35;37.17;;;;;;;0.10;65.18;100784.94;5024029;28;20049;-70
2022/03/08 06:05:36;;;;;;;46.88;26.42;;;;;;;0.16;65.51;100786.56;5025578;28;20145;-69
2022/03/08 06:08:04;;;;;;;38.60;25.38;;;;;;;0.21;65.38;100789.06;5025068;28;20057;-68
2022/03/08 06:10:31;;;;;;;36.10;22.05;;;;;;;0.31;65.27;100795.78;5026411;28;20124;-75
2022/03/08 06:12:58;;;;;;;33.65;18.80;;;;;;;0.40;64.92;100790.38;5025989;28;20149;-71
2022/03/08 06:15:25;;;;;;;35.95;21.08;;;;;;;0.48;65.17;100800.59;5026395;28;20069;-75
2022/03/08 06:17:52;;;;;;;40.90;22.00;;;;;;;0.54;65.12;100792.66;5028325;28;20057;-68
2022/03/08 06:20:19;;;;;;;37.03;19.05;;;;;;;0.62;65.01;100789.91;5027442;28;20046;-68
2022/03/08 06:22:47;;;;;;;51.13;30.33;;;;;;;0.68;65.11;100792.34;5026285;28;20132;-69
2022/03/08 06:25:14;;;;;;;81.22;44.63;;;;;;;0.73;64.76;100796.56;5026238;28;20045;-73
2022/03/08 06:27:41;;;;;;;114.10;53.47;;;;;;;0.75;65.18;100799.13;5026269;28;20045;-72
2022/03/08 06:30:10;;;;;;;71.90;34.85;;;;;;;0.79;65.36;100798.16;5025791;28;20537;-73
2022/03/08 06:32:37;;;;;;;57.30;26.48;;;;;;;0.92;65.18;100801.34;5024958;28;20045;-69
2022/03/08 06:35:04;;;;;;;40.60;23.33;;;;;;;1.05;64.84;100822.72;5028187;28;20048;-72
2022/03/08 06:37:31;;;;;;;44.92;26.02;;;;;;;1.09;64.92;100824.34;5013300;28;20160;-68
2022/03/08 06:40:01;;;;;;;39.85;26.02;;;;;;;1.11;64.84;100819.94;5028001;28;20573;-68
2022/03/08 06:42:28;;;;;;;31.40;20.38;;;;;;;1.16;64.67;100819.84;5028536;28;20571;-75
2022/03/08 06:44:55;;;;;;;29.38;17.98;;;;;;;1.28;64.58;100816.94;5027822;28;20076;-68
2022/03/08 06:47:22;;;;;;;31.20;19.73;;;;;;;1.31;64.44;100817.72;5028017;28;20046;-69
2022/03/08 06:49:49;;;;;;;28.92;18.27;;;;;;;1.44;64.50;100826.06;5027091;28;20045;-68
2022/03/08 06:52:16;;;;;;;32.38;19.70;;;;;;;1.48;64.40;100819.03;5025947;28;20045;-74
2022/03/08 06:54:43;;;;;;;41.03;23.63;;;;;;;1.52;64.14;100821.50;5025570;28;20087;-69
2022/03/08 06:57:11;;;;;;;37.33;24.35;;;;;;;1.57;64.06;100815.31;5026205;28;20049;-73
2022/03/08 06:59:39;;;;;;;34.55;21.58;;;;;;;1.61;63.97;100815.22;5026366;28;20045;-68
2022/03/08 07:02:06;;;;;;;35.13;21.55;;;;;;;1.65;63.92;100803.81;5026583;28;20060;-68
2022/03/08 07:04:33;;;;;;;36.58;20.38;;;;;;;1.70;63.61;100790.69;5027822;28;20059;-73
2022/03/08 07:07:00;;;;;;;33.28;22.58;;;;;;;1.83;63.34;100788.59;5027115;28;20053;-68
2022/03/08 07:09:28;;;;;;;37.58;22.08;;;;;;;1.83;63.47;100793.81;5025538;28;20045;-67
2022/03/08 07:11:55;;;;;;;34.05;20.65;;;;;;;1.96;63.49;100799.53;5026070;28;20052;-68
2022/03/08 07:14:23;;;;;;;33.70;22.55;;;;;;;2.00;63.38;100807.22;5025194;28;20064;-68
2022/03/08 07:16:50;;;;;;;47.30;23.77;;;;;;;2.01;63.16;100811.50;5025180;28;20050;-77
2022/03/08 07:19:18;;;;;;;42.63;25.65;;;;;;;2.15;63.09;100816.34;5025655;28;20077;-67
2022/03/08 07:21:46;;;;;;;40.33;26.38;;;;;;;2.13;62.75;100817.31;5024535;28;20041;-68
2022/03/08 07:24:14;;;;;;;37.78;26.88;;;;;;;2.13;62.58;100819.91;5025062;28;20413;-68
2022/03/08 07:26:41;;;;;;;39.05;24.40;;;;;;;2.20;62.79;100824.06;5025668;28;20123;-67
2022/03/08 07:29:09;;;;;;;37.45;23.40;;;;;;;2.39;62.28;100819.97;5024886;28;20056;-70
2022/03/08 07:31:38;;;;;;;35.17;26.88;;;;;;;2.47;62.09;100825.00;5025128;28;20790;-68
2022/03/08 07:34:05;;;;;;;36.30;26.02;;;;;;;2.59;61.76;100831.56;5009342;28;20416;-68
2022/03/08 07:36:32;;;;;;;38.20;31.50;;;;;;;2.66;61.23;100833.09;5030782;28;20687;-72
2022/03/08 07:39:00;;;;;;;45.28;31.15;;;;;;;2.58;61.55;100837.72;5029308;28;20068;-73
2022/03/08 07:41:27;;;;;;;38.92;32.58;;;;;;;2.55;61.29;100830.81;5028811;28;20069;-69
2022/03/08 07:43:54;;;;;;;43.70;29.90;;;;;;;2.53;61.34;100837.84;5024812;28;20058;-69
2022/03/08 07:46:22;;;;;;;51.42;33.75;;;;;;;2.61;61.37;100837.59;5024524;28;20048;-68
2022/03/08 07:48:51;;;;;;;55.63;36.65;;;;;;;2.62;61.20;100834.09;5024543;28;20049;-71
2022/03/08 07:51:17;;;;;;;44.80;32.55;;;;;;;2.76;61.00;100834.53;5023513;28;20045;-69
2022/03/08 07:53:44;;;;;;;45.03;33.10;;;;;;;2.86;60.19;100840.31;5025141;28;20049;-69
2022/03/08 07:56:11;;;;;;;48.10;35.72;;;;;;;2.79;60.36;100850.09;5026154;28;20501;-69
2022/03/08 07:58:40;;;;;;;46.58;36.65;;;;;;;2.73;60.35;100845.06;5031632;28;20076;-69
2022/03/08 08:01:08;;;;;;;50.53;34.38;;;;;;;2.75;60.52;100853.69;5032957;28;20041;-68
2022/03/08 08:03:36;;;;;;;44.83;37.35;;;;;;;2.71;60.33;100848.63;5035645;28;20057;-70
2022/03/08 08:06:04;;;;;;;44.35;37.45;;;;;;;2.65;59.90;100866.16;5033540;28;20133;-68
2022/03/08 08:08:31;;;;;;;42.00;34.65;;;;;;;2.61;60.30;100866.28;5030144;28;20128;-70
2022/03/08 08:10:58;;;;;;;39.30;32.45;;;;;;;2.62;60.72;100871.47;5026507;28;20049;-73
2022/03/08 08:13:25;;;;;;;44.55;32.95;;;;;;;2.70;60.58;100866.00;5029002;28;20065;-68
2022/03/08 08:15:52;;;;;;;37.10;25.45;;;;;;;2.76;60.12;100873.66;5025765;28;20569;-68
2022/03/08 08:18:20;;;;;;;43.75;34.10;;;;;;;2.75;60.63;100871.09;5025933;28;20088;-70
2022/03/08 08:20:49;;;;;;;33.90;25.65;;;;;;;2.77;60.88;100864.91;5024611;28;20069;-69
2022/03/08 08:23:17;;;;;;;44.05;32.88;;;;;;;2.79;61.02;100860.53;5025661;28;20053;-69
2022/03/08 08:25:44;;;;;;;37.05;26.92;;;;;;;2.76;60.70;100860.63;5024807;28;20464;-70
2022/03/08 08:28:11;;;;;;;32.70;27.67;;;;;;;2.75;60.79;100871.94;5025989;28;20160;-71
2022/03/08 08:30:38;;;;;;;30.80;24.88;;;;;;;2.75;60.78;100866.72;5026973;28;20541;-69
2022/03/08 08:33:05;;;;;;;24.48;20.67;;;;;;;2.77;60.21;100872.75;5024363;28;20124;-69
2022/03/08 08:35:32;;;;;;;27.30;21.02;;;;;;;2.73;60.19;100886.78;5026126;28;20253;-68
2022/03/08 08:37:59;;;;;;;26.25;20.15;;;;;;;2.80;60.35;100877.88;5025589;28;20077;-74
2022/03/08 08:40:28;;;;;;;25.13;18.70;;;;;;;2.97;59.97;100873.91;5024637;28;20159;-69
2022/03/08 08:42:55;;;;;;;29.35;17.48;;;;;;;3.00;59.02;100864.22;5024934;28;20054;-68
2022/03/08 08:45:22;;;;;;;24.10;18.80;;;;;;;2.96;59.26;100864.38;5023516;28;20055;-69
2022/03/08 08:47:49;;;;;;;26.95;18.73;;;;;;;2.87;59.44;100866.34;5024137;28;20436;-70
2022/03/08 08:50:16;;;;;;;24.23;18.02;;;;;;;2.81;59.56;100863.94;5022410;28;20081;-75
2022/03/08 08:52:43;;;;;;;25.08;17.60;;;;;;;2.83;59.42;100862.13;5024539;28;20055;-77
2022/03/08 08:55:11;;;;;;;23.65;17.67;;;;;;;2.90;59.52;100861.94;5025017;28;20137;-66
2022/03/08 08:57:40;;;;;;;24.20;18.42;;;;;;;2.99;59.29;100862.53;5022891;28;20081;-68
2022/03/08 09:00:09;;;;;;;33.20;22.88;;;;;;;3.00;59.15;100858.16;5024175;28;20049;-69
2022/03/08 09:02:36;;;;;;;31.15;19.95;;;;;;;2.84;59.57;100860.38;5025209;28;20037;-68
2022/03/08 09:05:08;;;;;;;31.15;22.65;;;;;;;2.77;59.49;100858.84;5022577;28;20092;-68
2022/03/08 09:07:35;;;;;;;29.65;20.33;;;;;;;2.81;59.78;100855.25;5023845;28;20057;-68
2022/03/08 09:10:02;;;;;;;29.88;18.10;;;;;;;2.92;59.57;100855.78;5024164;28;20132;-70
2022/03/08 09:12:29;;;;;;;27.02;20.27;;;;;;;2.98;59.04;100852.97;5022838;28;20041;-67
2022/03/08 09:14:58;;;;;;;31.55;20.20;;;;;;;2.90;59.24;100841.06;5023209;28;20046;-68
2022/03/08 09:17:25;;;;;;;36.88;20.73;;;;;;;2.97;59.48;100842.59;5024552;28;20045;-69
2022/03/08 09:19:51;;;;;;;34.05;19.63;;;;;;;2.97;59.46;100840.84;5020849;28;20541;-68
2022/03/08 09:22:18;;;;;;;28.52;18.48;;;;;;;2.99;59.26;100832.94;5022337;28;20051;-67
2022/03/08 09:24:45;;;;;;;30.80;20.63;;;;;;;2.95;59.72;100837.41;5024439;28;20064;-68
2022/03/08 09:27:12;;;;;;;29.95;22.35;;;;;;;2.84;60.00;100837.75;5023790;28;20056;-67
2022/03/08 09:29:39;;;;;;;30.00;22.05;;;;;;;2.88;60.10;100833.28;5025366;28;20050;-70
2022/03/08 09:32:09;;;;;;;27.00;20.73;;;;;;;3.01;60.01;100834.63;5024154;28;20128;-69
2022/03/08 09:34:38;;;;;;;25.25;19.33;;;;;;;2.99;59.26;100836.44;5023299;28;20513;-72
2022/03/08 09:37:05;;;;;;;24.05;18.80;;;;;;;2.94;58.79;100834.88;5031136;28;20141;-68
2022/03/08 09:39:32;;;;;;;23.40;16.60;;;;;;;2.84;59.18;100832.53;5027669;28;20054;-70
2022/03/08 09:41:59;;;;;;;24.10;16.98;;;;;;;2.89;58.94;100831.56;5023278;28;20045;-70
2022/03/08 09:44:27;;;;;;;25.10;16.17;;;;;;;2.89;59.05;100831.56;5023624;28;20727;-69
2022/03/08 09:46:54;;;;;;;28.10;17.95;;;;;;;3.19;58.84;100833.19;5023238;28;20591;-69
2022/03/08 09:49:23;;;;;;;26.63;18.70;;;;;;;3.40;57.96;100831.63;5023789;28;20060;-69
2022/03/08 09:51:52;;;;;;;23.85;17.58;;;;;;;3.43;57.54;100822.81;5022152;28;20044;-70
2022/03/08 09:54:19;;;;;;;22.67;15.60;;;;;;;3.64;57.12;100827.31;5024047;28;20053;-71
2022/03/08 09:56:46;;;;;;;26.85;18.45;;;;;;;3.78;56.77;100825.97;5021592;28;20055;-68
2022/03/08 09:59:15;;;;;;;23.98;16.33;;;;;;;3.72;56.90;100818.34;5021790;28;20064;-68
2022/03/08 10:01:42;;;;;;;27.33;16.48;;;;;;;3.71;56.96;100808.81;5021486;28;20482;-68
2022/03/08 10:04:09;;;;;;;21.98;14.73;;;;;;;3.64;56.85;100809.03;5022433;28;20059;-68
2022/03/08 10:06:43;;;;;;;21.88;15.85;;;;;;;3.79;56.70;100806.78;5023378;28;20046;-71
2022/03/08 10:09:15;;;;;;;22.42;13.73;;;;;;;4.01;56.14;100802.47;5020038;28;20053;-68
2022/03/08 10:11:43;;;;;;;23.70;16.85;;;;;;;4.27;55.35;100787.59;5022703;28;20045;-69
2022/03/08 10:14:13;;;;;;;24.05;15.38;;;;;;;4.17;55.09;100791.47;5023137;28;20045;-67
2022/03/08 10:16:48;;;;;;;25.38;14.77;;;;;;;4.34;55.14;100790.81;5021771;28;20136;-69
2022/03/08 10:19:15;;;;;;;23.25;14.70;;;;;;;4.45;54.59;100785.19;5023126;28;20110;-68
2022/03/08 10:21:47;;;;;;;18.95;13.18;;;;;;;4.49;54.19;100792.03;5021681;28;20128;-69
2022/03/08 10:24:17;;;;;;;16.88;11.77;;;;;;;4.38;54.38;100782.81;5021370;28;20049;-68
2022/03/08 10:26:47;;;;;;;17.00;11.10;;;;;;;4.51;54.24;100784.97;5022777;28;20124;-69
2022/03/08 10:29:14;;;;;;;22.45;13.68;;;;;;;4.62;53.91;100788.00;5024498;28;20050;-67
2022/03/08 10:31:41;;;;;;;15.70;10.75;;;;;;;4.60;53.14;100782.81;5024153;28;20128;-71
2022/03/08 10:34:15;;;;;;;14.00;10.18;;;;;;;4.47;53.28;100776.38;5024540;28;20080;-69
2022/03/08 10:36:59;;;;;;;14.30;10.77;;;;;;;4.47;53.74;100780.78;5025961;28;20260;-68
2022/03/08 10:39:26;;;;;;;15.88;11.85;;;;;;;4.50;53.44;100767.53;5008261;28;20037;-69
2022/03/08 10:41:57;;;;;;;14.60;10.63;;;;;;;4.50;53.68;100767.53;5027211;28;20046;-68
2022/03/08 10:44:36;;;;;;;12.88;10.05;;;;;;;4.56;53.48;100764.72;5024091;28;20049;-70
2022/03/08 10:47:07;;;;;;;12.98;8.80;;;;;;;4.91;52.84;100749.34;5025182;28;20382;-69
2022/03/08 10:49:34;;;;;;;18.88;11.57;;;;;;;5.15;52.28;100753.56;5023144;28;20216;-70
2022/03/08 10:52:05;;;;;;;17.67;13.18;;;;;;;5.07;52.08;100747.78;5021976;28;20049;-71
2022/03/08 10:54:34;;;;;;;16.80;11.25;;;;;;;5.06;52.03;100748.72;5022752;28;20056;-69
2022/03/08 10:57:02;;;;;;;13.90;11.27;;;;;;;5.27;51.64;100752.19;5022772;28;20056;-68
2022/03/08 10:59:29;;;;;;;17.48;14.05;;;;;;;5.21;51.47;100754.25;5020033;28;20049;-68
2022/03/08 11:01:56;;;;;;;15.80;11.48;;;;;;;4.98;51.86;100749.03;5022204;28;20063;-68
2022/03/08 11:04:24;;;;;;;14.07;9.07;;;;;;;4.84;52.52;100750.50;5022521;28;20057;-68
2022/03/08 11:06:52;;;;;;;18.35;11.30;;;;;;;5.00;52.40;100751.56;5020625;28;20049;-68
2022/03/08 11:09:22;;;;;;;18.27;10.77;;;;;;;5.09;51.91;100750.34;5021006;28;20497;-68
2022/03/08 11:11:52;;;;;;;11.23;8.23;;;;;;;5.44;51.73;100748.00;5022676;28;20049;-77
2022/03/08 11:14:22;;;;;;;13.35;9.35;;;;;;;5.77;51.16;100750.91;5020881;28;20417;-69
2022/03/08 11:16:51;;;;;;;12.82;9.27;;;;;;;5.91;50.27;100745.91;5022362;28;20405;-69
2022/03/08 11:19:19;;;;;;;15.63;10.55;;;;;;;6.10;49.31;100747.72;5021262;28;20049;-71
2022/03/08 11:21:48;;;;;;;18.88;10.05;;;;;;;6.42;49.09;100740.13;5023087;28;20050;-67